Time;durP1;ratioP1;P1;durP2;ratioP2;P2;SDS_P1;SDS_P2;PMS_P1;PMS_P2;Temp;Humidity;BMP_temperature;BMP_pressure;BME280_temperature;BME280_humidity;BME280_pressure;Samples;Min_cycle;Max_cycle;Signal;HPM_P1;HPM_P2
2022/01/26 00:06:35;;;;;;;;;;;;;;;1.43;94.99;102897.47;2568869;30;137091;-36
2022/01/26 00:09:04;;;;;;;;;;;;;;;1.43;95.95;102907.38;2567124;30;138384;-36
2022/01/26 00:11:32;;;;;;;;;;;;;;;1.43;94.14;102908.22;2566775;30;137472;-36
2022/01/26 00:14:02;;;;;;;;;;;;;;;1.39;93.52;102913.91;2568543;30;138197;-36
2022/01/26 00:16:39;;;;;;;;;;;;;;;1.37;93.61;102907.78;2567649;30;137881;-36
2022/01/26 00:19:11;;;;;;;;;;;;;;;1.36;94.47;102904.22;2566749;30;137322;-36
2022/01/26 00:21:46;;;;;;;;;;;;;;;1.40;95.38;102903.03;2569853;30;138172;-36
2022/01/26 00:29:23;;;;;;;;;;;;;;;1.46;92.72;102912.53;2566761;30;138810;-36
2022/01/26 00:40:20;;;;;;;;;;;;;;;1.44;94.63;102896.50;2567661;30;138953;-36
2022/01/26 00:42:51;;;;;;;;;;;;;;;1.44;93.63;102898.34;2567097;30;136554;-36
2022/01/26 00:45:24;;;;;;;;;;;;;;;1.42;93.93;102898.41;2565271;30;139241;-36
2022/01/26 00:47:52;;;;;;;;;;;;;;;1.46;93.49;102891.03;2567134;30;137471;-36
2022/01/26 00:50:19;;;;;;;;;;;;;;;1.48;93.65;102893.63;2568223;30;138542;-36
2022/01/26 00:52:53;;;;;;;;;;;;;;;1.43;93.46;102899.31;2569190;30;136619;-36
2022/01/26 00:55:21;;;;;;;;;;;;;;;1.40;94.67;102896.81;2566785;30;137844;-36
2022/01/26 00:57:49;;;;;;;;;;;;;;;1.37;94.79;102897.88;2568681;30;138154;-36
2022/01/26 01:00:22;;;;;;;;;;;;;;;1.36;94.94;102896.13;2569053;30;139214;-36
2022/01/26 01:02:50;;;;;;;;;;;;;;;1.37;95.44;102891.63;2567901;30;137129;-36
2022/01/26 01:05:25;;;;;;;;;;;;;;;1.37;97.08;102892.50;2569732;30;137149;-36
2022/01/26 01:08:00;;;;;;;;;;;;;;;1.37;97.76;102897.03;2569020;30;137686;-36
2022/01/26 01:10:27;;;;;;;;;;;;;;;1.38;98.64;102887.97;2568319;30;139082;-36
2022/01/26 01:12:57;;;;;;;;;;;;;;;1.36;98.97;102893.44;2570787;30;137987;-41
2022/01/26 01:15:26;;;;;;;;;;;;;;;1.36;98.79;102896.13;2567526;30;138049;-40
2022/01/26 01:18:06;;;;;;;;;;;;;;;1.37;97.88;102892.50;2568327;30;137004;-40
2022/01/26 01:26:19;;;;;;;;;;;;;;;1.42;95.84;102900.25;2568513;30;138303;-40
2022/01/26 01:31:27;;;;;;;;;;;;;;;1.37;95.32;102911.31;2568680;30;138135;-40
2022/01/26 01:33:55;;;;;;;;;;;;;;;1.34;95.86;102902.59;2568349;30;137092;-40
2022/01/26 01:36:23;;;;;;;;;;;;;;;1.37;96.10;102897.03;2566198;30;138017;-40
2022/01/26 01:38:55;;;;;;;;;;;;;;;1.36;94.96;102908.75;2568575;30;136799;-40
2022/01/26 01:41:22;;;;;;;;;;;;;;;1.38;93.72;102898.75;2568640;30;138525;-40
2022/01/26 01:43:50;;;;;;;;;;;;;;;1.40;93.47;102904.88;2566467;30;137985;-40
2022/01/26 01:46:18;;;;;;;;;;;;;;;1.39;94.03;102892.41;2568945;30;137655;-40
2022/01/26 01:48:46;;;;;;;;;;;;;;;1.37;95.06;102887.09;2568644;30;136916;-40
2022/01/26 01:51:16;;;;;;;;;;;;;;;1.35;95.06;102901.63;2568881;30;138206;-40
2022/01/26 01:53:45;;;;;;;;;;;;;;;1.33;95.01;102901.72;2568019;30;137951;-40
2022/01/26 01:56:14;;;;;;;;;;;;;;;1.31;95.70;102897.41;2568422;30;139086;-40
2022/01/26 01:58:42;;;;;;;;;;;;;;;1.31;95.82;102897.41;2569109;30;137396;-40
2022/01/26 02:01:10;;;;;;;;;;;;;;;1.35;95.28;102899.78;2567620;30;139613;-40
2022/01/26 02:03:38;;;;;;;;;;;;;;;1.31;95.96;102890.22;2569913;30;137869;-40
2022/01/26 02:06:05;;;;;;;;;;;;;;;1.31;95.79;102894.72;2567361;30;138283;-40
2022/01/26 02:08:33;;;;;;;;;;;;;;;1.31;94.87;102894.72;2569159;30;137071;-40
2022/01/26 02:11:03;;;;;;;;;;;;;;;1.32;95.33;102888.38;2568288;30;138189;-40
2022/01/26 02:13:38;;;;;;;;;;;;;;;1.34;94.07;102891.84;2568389;30;137025;-41
2022/01/26 02:17:04;;;;;;;;;;;;;;;1.31;94.26;102890.22;2568746;30;138331;-40
2022/01/26 03:04:54;;;;;;;;;;;;;;;1.25;92.84;102845.75;2566824;30;139216;-40
2022/01/26 03:10:03;;;;;;;;;;;;;;;1.26;94.91;102820.56;2566881;30;138120;-40
2022/01/26 03:12:41;;;;;;;;;;;;;;;1.36;95.53;102809.22;2565746;30;138423;-40
2022/01/26 03:15:15;;;;;;;;;;;;;;;1.29;94.99;102823.06;2568944;30;138201;-40
2022/01/26 03:18:23;;;;;;;;;;;;;;;1.26;95.08;102817.88;2568428;30;137213;-40
2022/01/26 03:20:51;;;;;;;;;;;;;;;1.24;94.34;102819.81;2567759;30;138952;-40
2022/01/26 03:36:24;;;;;;;;;;;;;;;1.38;93.88;102801.91;2566555;30;137956;-40
2022/01/26 03:39:00;;;;;;;;;;;;;;;1.40;94.29;102794.59;2568459;30;137212;-40
2022/01/26 03:44:03;;;;;;;;;;;;;;;1.39;95.15;102782.13;2568842;30;137000;-40
2022/01/26 03:46:31;;;;;;;;;;;;;;;1.29;94.35;102793.47;2567989;30;138630;-40
2022/01/26 03:48:59;;;;;;;;;;;;;;;1.37;93.51;102789.44;2567962;30;136960;-40
2022/01/26 03:51:27;;;;;;;;;;;;;;;1.33;92.25;102795.97;2567497;30;138223;-40
2022/01/26 03:53:55;;;;;;;;;;;;;;;1.31;92.57;102808.63;2568019;30;137120;-40
2022/01/26 03:56:23;;;;;;;;;;;;;;;1.26;91.87;102807.13;2569035;30;137215;-40
2022/01/26 03:58:50;;;;;;;;;;;;;;;1.22;92.24;102802.91;2569229;30;137197;-40
2022/01/26 04:01:18;;;;;;;;;;;;;;;1.17;93.14;102805.06;2568001;30;138269;-41
2022/01/26 04:03:47;;;;;;;;;;;;;;;1.17;94.57;102806.88;2568583;30;137830;-40
2022/01/26 04:06:16;;;;;;;;;;;;;;;1.17;95.02;102810.44;2567601;30;138003;-40
2022/01/26 04:08:45;;;;;;;;;;;;;;;1.13;94.96;102820.53;2569282;30;136926;-40
2022/01/26 04:13:51;;;;;;;;;;;;;;;1.13;95.59;102822.38;2568821;30;137099;-40
2022/01/26 04:16:19;;;;;;;;;;;;;;;1.15;95.62;102826.66;2567407;30;137090;-42
2022/01/26 04:18:47;;;;;;;;;;;;;;;1.16;94.57;102819.47;2567606;30;136968;-40
2022/01/26 04:23:58;;;;;;;;;;;;;;;1.20;94.77;102814.75;2569491;30;137185;-40
2022/01/26 04:26:33;;;;;;;;;;;;;;;1.25;94.21;102818.00;2566929;30;137698;-40
2022/01/26 04:29:06;;;;;;;;;;;;;;;1.22;94.16;102808.31;2567902;30;137207;-40
2022/01/26 04:31:34;;;;;;;;;;;;;;;1.19;94.09;102821.06;2569384;30;138335;-40
2022/01/26 04:34:02;;;;;;;;;;;;;;;1.13;94.85;102823.22;2568449;30;137765;-41
2022/01/26 04:36:36;;;;;;;;;;;;;;;1.12;95.23;102831.41;2568458;30;138485;-40
2022/01/26 04:39:08;;;;;;;;;;;;;;;1.14;94.88;102832.16;2568511;30;137522;-40
2022/01/26 04:44:25;;;;;;;;;;;;;;;1.11;92.99;102837.75;2567565;30;137354;-40
2022/01/26 04:46:53;;;;;;;;;;;;;;;1.02;93.75;102836.50;2569247;30;137078;-40
2022/01/26 04:49:20;;;;;;;;;;;;;;;1.02;94.63;102838.31;2568028;30;136576;-40
2022/01/26 04:51:48;;;;;;;;;;;;;;;1.02;94.60;102844.56;2568378;30;139056;-40
2022/01/26 04:54:16;;;;;;;;;;;;;;;0.99;94.37;102845.63;2568529;30;136868;-40
2022/01/26 04:56:44;;;;;;;;;;;;;;;0.96;94.08;102834.22;2567220;30;138329;-40
2022/01/26 04:59:12;;;;;;;;;;;;;;;1.02;94.16;102838.31;2567243;30;137436;-40
2022/01/26 05:01:39;;;;;;;;;;;;;;;1.00;95.52;102839.28;2567665;30;138225;-40
2022/01/26 05:04:07;;;;;;;;;;;;;;;1.02;94.39;102823.06;2569197;30;137329;-41
2022/01/26 05:06:35;;;;;;;;;;;;;;;1.00;94.74;102827.69;2567130;30;138536;-40
2022/01/26 05:09:03;;;;;;;;;;;;;;;0.99;95.30;102825.97;2567921;30;137346;-41
2022/01/26 05:11:35;;;;;;;;;;;;;;;0.98;95.55;102837.69;2567885;30;138201;-40
2022/01/26 05:14:03;;;;;;;;;;;;;;;0.99;94.73;102845.63;2568029;30;137124;-40
2022/01/26 05:16:32;;;;;;;;;;;;;;;0.98;94.40;102846.59;2568756;30;137225;-40
2022/01/26 05:19:00;;;;;;;;;;;;;;;0.96;94.57;102858.41;2569095;30;136760;-41
2022/01/26 05:21:29;;;;;;;;;;;;;;;0.99;95.07;102861.75;2567753;30;137416;-40
2022/01/26 05:23:57;;;;;;;;;;;;;;;1.05;95.80;102873.06;2568319;30;137142;-40
2022/01/26 05:26:25;;;;;;;;;;;;;;;1.01;95.71;102864.34;2566895;30;137906;-40
2022/01/26 05:28:53;;;;;;;;;;;;;;;1.00;95.65;102859.94;2569266;30;137929;-40
2022/01/26 05:31:20;;;;;;;;;;;;;;;1.05;95.08;102862.31;2567546;30;138194;-40
2022/01/26 05:33:48;;;;;;;;;;;;;;;1.02;94.78;102860.69;2568610;30;136622;-40
2022/01/26 05:36:16;;;;;;;;;;;;;;;1.02;94.99;102870.56;2566807;38;138143;-40
2022/01/26 05:38:44;;;;;;;;;;;;;;;1.01;95.32;102877.78;2567365;30;137147;-40
2022/01/26 05:41:12;;;;;;;;;;;;;;;1.02;96.06;102859.81;2567564;30;137218;-40
2022/01/26 05:43:41;;;;;;;;;;;;;;;1.04;95.84;102861.47;2569820;30;137005;-40
2022/01/26 05:46:18;;;;;;;;;;;;;;;1.04;95.33;102857.91;2568661;30;136987;-40
2022/01/26 05:48:49;;;;;;;;;;;;;;;1.05;95.25;102851.56;2568867;30;137961;-41
2022/01/26 05:51:17;;;;;;;;;;;;;;;1.02;95.52;102841.88;2568542;30;138061;-40
2022/01/26 05:53:45;;;;;;;;;;;;;;;1.06;95.81;102846.09;2566847;30;137028;-40
2022/01/26 05:56:13;;;;;;;;;;;;;;;1.00;94.94;102863.47;2568493;30;137849;-40
2022/01/26 05:58:40;;;;;;;;;;;;;;;1.05;95.61;102855.13;2569163;30;137137;-41
2022/01/26 06:01:14;;;;;;;;;;;;;;;1.00;94.76;102847.34;2566405;30;138933;-40
2022/01/26 06:03:42;;;;;;;;;;;;;;;1.05;94.75;102827.34;2569201;30;137050;-40
2022/01/26 06:06:10;;;;;;;;;;;;;;;1.08;95.22;102821.81;2566539;30;138984;-40
2022/01/26 06:08:37;;;;;;;;;;;;;;;1.07;94.91;102817.41;2568414;30;136805;-40
2022/01/26 06:11:05;;;;;;;;;;;;;;;1.08;95.17;102809.22;2568513;30;136598;-40
2022/01/26 06:13:33;;;;;;;;;;;;;;;1.04;95.38;102788.88;2567563;30;137457;-40
2022/01/26 06:16:01;;;;;;;;;;;;;;;1.09;94.14;102796.66;2568324;30;138204;-40
2022/01/26 06:18:28;;;;;;;;;;;;;;;1.03;93.71;102814.03;2568779;30;136805;-40
2022/01/26 06:20:56;;;;;;;;;;;;;;;0.99;93.58;102834.88;2567133;30;138751;-40
2022/01/26 06:23:25;;;;;;;;;;;;;;;0.95;93.33;102830.66;2569570;30;136773;-40
2022/01/26 06:25:54;;;;;;;;;;;;;;;0.96;94.15;102832.38;2567117;30;138470;-41
2022/01/26 06:28:23;;;;;;;;;;;;;;;0.97;94.33;102842.19;2568974;30;137052;-40
2022/01/26 06:30:55;;;;;;;;;;;;;;;0.96;94.64;102827.00;2569228;30;138424;-40
2022/01/26 06:33:23;;;;;;;;;;;;;;;0.99;94.26;102834.88;2565925;30;136996;-40
2022/01/26 06:35:51;;;;;;;;;;;;;;;0.99;94.77;102834.03;2568111;30;138979;-40
2022/01/26 06:38:19;;;;;;;;;;;;;;;0.93;94.46;102839.78;2568459;30;138038;-41
2022/01/26 06:40:47;;;;;;;;;;;;;;;0.87;93.98;102849.13;2567952;30;138155;-40
2022/01/26 06:43:15;;;;;;;;;;;;;;;0.84;95.00;102849.31;2569106;30;137403;-40
2022/01/26 06:46:05;;;;;;;;;;;;;;;0.89;93.68;102855.25;2568380;30;137842;-40
2022/01/26 06:51:00;;;;;;;;;;;;;;;0.82;94.27;102848.56;2567868;30;138317;-40
2022/01/26 06:53:28;;;;;;;;;;;;;;;0.81;93.98;102853.06;2569424;30;137094;-40
2022/01/26 06:55:56;;;;;;;;;;;;;;;0.88;94.34;102845.47;2567497;30;138300;-40
2022/01/26 06:58:24;;;;;;;;;;;;;;;0.84;94.53;102842.09;2567901;30;136873;-40
2022/01/26 07:00:52;;;;;;;;;;;;;;;0.87;95.15;102819.56;2566117;30;137776;-40
2022/01/26 07:03:20;;;;;;;;;;;;;;;0.92;95.42;102805.78;2568338;30;136919;-40
2022/01/26 07:05:48;;;;;;;;;;;;;;;0.90;95.47;102803.22;2568690;30;138366;-40
2022/01/26 07:08:15;;;;;;;;;;;;;;;0.86;95.23;102809.75;2566273;30;137579;-40
2022/01/26 07:10:45;;;;;;;;;;;;;;;0.84;96.02;102815.22;2567794;30;138445;-40
2022/01/26 07:13:12;;;;;;;;;;;;;;;0.84;95.68;102827.81;2571200;30;137233;-38
2022/01/26 07:21:25;;;;;;;;;;;;;;;0.88;96.44;102820.41;2568206;30;138506;-36
2022/01/26 07:23:54;;;;;;;;;;;;;;;0.83;97.02;102818.03;2568494;30;136941;-36
2022/01/26 07:26:25;;;;;;;;;;;;;;;0.89;96.62;102806.88;2569469;30;138303;-36
2022/01/26 07:28:54;;;;;;;;;;;;;;;0.86;97.45;102799.88;2565792;30;138442;-36
2022/01/26 07:31:22;;;;;;;;;;;;;;;0.92;98.35;102809.34;2567737;30;137507;-36
2022/01/26 07:33:54;;;;;;;;;;;;;;;0.90;97.51;102813.09;2567824;30;137448;-36
2022/01/26 07:36:22;;;;;;;;;;;;;;;0.90;97.95;102803.22;2569653;30;137998;-36
2022/01/26 07:38:52;;;;;;;;;;;;;;;0.95;97.45;102816.38;2569542;30;136947;-36
2022/01/26 07:41:20;;;;;;;;;;;;;;;0.97;98.41;102815.28;2568761;30;137686;-36
2022/01/26 07:43:48;;;;;;;;;;;;;;;1.07;95.99;102820.09;2568194;30;136940;-36
2022/01/26 07:46:17;;;;;;;;;;;;;;;1.05;96.28;102821.97;2567972;30;137295;-37
2022/01/26 07:48:45;;;;;;;;;;;;;;;1.05;96.07;102824.66;2568735;30;137234;-38
2022/01/26 07:51:13;;;;;;;;;;;;;;;1.03;96.51;102823.91;2567814;30;138446;-38
2022/01/26 07:53:40;;;;;;;;;;;;;;;1.01;97.29;102824.03;2567847;30;136943;-36
2022/01/26 07:56:08;;;;;;;;;;;;;;;1.03;97.82;102835.53;2568523;30;138430;-36
2022/01/26 07:58:36;;;;;;;;;;;;;;;0.96;97.30;102834.22;2569363;30;136941;-36
2022/01/26 08:01:04;;;;;;;;;;;;;;;0.96;97.80;102837.75;2567878;30;139024;-36
2022/01/26 08:03:35;;;;;;;;;;;;;;;1.00;99.44;102825.00;2567752;30;137147;-36
2022/01/26 08:06:04;;;;;;;;;;;;;;;1.02;98.98;102804.25;2568555;30;137388;-36
2022/01/26 08:08:33;;;;;;;;;;;;;;;1.05;99.05;102795.09;2567187;30;137232;-36
2022/01/26 08:11:01;;;;;;;;;;;;;;;1.03;98.51;102819.41;2568645;30;137506;-36
2022/01/26 08:13:29;;;;;;;;;;;;;;;1.04;98.59;102826.50;2568115;30;136970;-36
2022/01/26 08:15:57;;;;;;;;;;;;;;;1.06;98.71;102812.94;2569955;30;138139;-36
2022/01/26 08:18:25;;;;;;;;;;;;;;;1.04;99.10;102812.19;2566973;30;137673;-36
2022/01/26 08:20:53;;;;;;;;;;;;;;;1.09;98.60;102820.84;2566218;30;138331;-36
2022/01/26 08:23:22;;;;;;;;;;;;;;;1.13;97.98;102827.75;2568537;30;137270;-36
2022/01/26 08:25:52;;;;;;;;;;;;;;;1.14;98.10;102830.31;2568083;30;139288;-36
2022/01/26 08:28:26;;;;;;;;;;;;;;;1.17;98.75;102840.03;2567172;30;137870;-36
2022/01/26 08:30:54;;;;;;;;;;;;;;;1.20;97.67;102852.41;2567301;30;139041;-36
2022/01/26 08:33:22;;;;;;;;;;;;;;;1.17;97.81;102842.72;2568077;30;137098;-36
2022/01/26 08:35:50;;;;;;;;;;;;;;;1.25;98.73;102842.22;2567723;30;138491;-36
2022/01/26 08:38:19;;;;;;;;;;;;;;;1.28;98.74;102840.16;2566454;30;138034;-36
2022/01/26 08:40:49;;;;;;;;;;;;;;;1.28;98.07;102856.28;2569011;30;138383;-36
2022/01/26 08:43:17;;;;;;;;;;;;;;;1.27;97.75;102869.84;2567694;30;136602;-36
2022/01/26 08:45:44;;;;;;;;;;;;;;;1.35;98.82;102883.66;2568501;30;139026;-36
2022/01/26 08:48:13;;;;;;;;;;;;;;;1.32;98.08;102888.38;2564970;30;137257;-35
2022/01/26 08:50:41;;;;;;;;;;;;;;;1.31;98.88;102892.91;2566146;30;139506;-36
2022/01/26 08:53:09;;;;;;;;;;;;;;;1.35;99.64;102872.06;2568878;30;137185;-36
2022/01/26 08:55:37;;;;;;;;;;;;;;;1.37;99.68;102873.66;2568460;30;139474;-36
2022/01/26 08:58:05;;;;;;;;;;;;;;;1.39;99.67;102866.34;2568213;30;138345;-36
2022/01/26 09:00:35;;;;;;;;;;;;;;;1.37;99.61;102868.28;2566511;30;138384;-36
2022/01/26 09:03:11;;;;;;;;;;;;;;;1.33;99.83;102880.22;2567574;30;137038;-36
2022/01/26 09:05:39;;;;;;;;;;;;;;;1.32;100.00;102874.91;2566709;30;137247;-36
2022/01/26 09:08:07;;;;;;;;;;;;;;;1.35;100.00;102891.72;2566680;30;137144;-36
2022/01/26 09:10:37;;;;;;;;;;;;;;;1.37;100.00;102876.34;2567482;30;138549;-36
2022/01/26 09:13:05;;;;;;;;;;;;;;;1.43;100.00;102872.41;2567239;30;137992;-35
2022/01/26 09:15:33;;;;;;;;;;;;;;;1.42;100.00;102874.22;2567736;30;138514;-36
2022/01/26 09:18:05;;;;;;;;;;;;;;;1.43;100.00;102883.16;2570060;30;137103;-36
2022/01/26 09:20:38;;;;;;;;;;;;;;;1.46;100.00;102885.66;2568740;30;137825;-36
2022/01/26 09:23:06;;;;;;;;;;;;;;;1.40;100.00;102876.13;2567072;30;137143;-36
2022/01/26 09:25:35;;;;;;;;;;;;;;;1.39;100.00;102887.03;2568709;30;138260;-36
2022/01/26 09:28:03;;;;;;;;;;;;;;;1.36;100.00;102882.69;2569013;30;136982;-36
2022/01/26 09:30:30;;;;;;;;;;;;;;;1.32;100.00;102891.94;2570183;30;138130;-36
2022/01/26 09:32:58;;;;;;;;;;;;;;;1.35;100.00;102898.94;2565648;30;137481;-36
2022/01/26 09:35:26;;;;;;;;;;;;;;;1.38;100.00;102896.06;2569125;30;138539;-36
2022/01/26 09:37:54;;;;;;;;;;;;;;;1.38;100.00;102896.06;2568563;30;137914;-36
2022/01/26 09:40:22;;;;;;;;;;;;;;;1.34;100.00;102894.53;2569484;30;139461;-36
2022/01/26 09:42:51;;;;;;;;;;;;;;;1.37;100.00;102892.50;2569136;30;137800;-36
2022/01/26 09:45:19;;;;;;;;;;;;;;;1.42;100.00;102893.03;2567933;30;139096;-36
2022/01/26 09:47:47;;;;;;;;;;;;;;;1.44;100.00;102898.34;2568975;30;138144;-36
2022/01/26 09:50:30;;;;;;;;;;;;;;;1.49;100.00;102898.88;2568558;30;138351;-35
2022/01/26 09:52:58;;;;;;;;;;;;;;;1.51;100.00;102888.03;2568508;30;137212;-35
2022/01/26 09:55:26;;;;;;;;;;;;;;;1.47;100.00;102886.53;2567475;30;137338;-36
2022/01/26 09:57:58;;;;;;;;;;;;;;;1.52;100.00;102884.38;2568317;30;137284;-36
2022/01/26 10:00:26;;;;;;;;;;;;;;;1.55;100.00;102889.56;2569493;30;138351;-37
2022/01/26 10:02:56;;;;;;;;;;;;;;;1.58;100.00;102879.44;2569374;30;137093;-38
2022/01/26 10:05:24;;;;;;;;;;;;;;;1.62;100.00;102873.88;2567799;30;137776;-38
2022/01/26 10:08:09;;;;;;;;;;;;;;;1.62;100.00;102876.56;2568348;30;137221;-36
2022/01/26 10:16:02;;;;;;;;;;;;;;;1.62;100.00;102869.34;2567279;30;137259;-35
2022/01/26 10:18:31;;;;;;;;;;;;;;;1.59;100.00;102864.16;2569472;30;137693;-38
2022/01/26 10:21:01;;;;;;;;;;;;;;;1.58;100.00;102870.50;2568840;30;138570;-37
2022/01/26 10:23:36;;;;;;;;;;;;;;;1.55;100.00;102866.19;2569351;30;137162;-38
2022/01/26 10:26:08;;;;;;;;;;;;;;;1.60;100.00;102865.03;2567546;30;139247;-38
2022/01/26 10:28:54;;;;;;;;;;;;;;;1.56;100.00;102859.84;2569194;30;137290;-36
2022/01/26 10:31:26;;;;;;;;;;;;;;;1.61;100.00;102856.84;2567760;30;137744;-36
2022/01/26 10:34:14;;;;;;;;;;;;;;;1.64;100.00;102859.31;2569220;30;137096;-36
2022/01/26 10:36:42;;;;;;;;;;;;;;;1.67;100.00;102866.34;2568338;30;138316;-38
2022/01/26 10:39:12;;;;;;;;;;;;;;;1.65;100.00;102874.50;2569015;30;136660;-38
2022/01/26 10:41:41;;;;;;;;;;;;;;;1.67;100.00;102879.81;2567360;30;137354;-38
2022/01/26 10:44:10;;;;;;;;;;;;;;;1.72;100.00;102872.28;2568832;30;137277;-38
2022/01/26 10:46:40;;;;;;;;;;;;;;;1.70;100.00;102866.13;2567446;30;139003;-37
2022/01/26 10:54:39;;;;;;;;;;;;;;;1.74;100.00;102846.13;2569670;30;137111;-38
2022/01/26 10:57:08;;;;;;;;;;;;;;;1.81;100.00;102855.50;2567516;30;138329;-37
2022/01/26 10:59:37;;;;;;;;;;;;;;;1.76;100.00;102868.41;2568948;30;137059;-36
2022/01/26 11:02:05;;;;;;;;;;;;;;;1.76;100.00;102881.00;2567748;30;138456;-36
2022/01/26 11:04:34;;;;;;;;;;;;;;;1.78;100.00;102877.22;2568224;30;136976;-36
2022/01/26 11:07:03;;;;;;;;;;;;;;;1.85;100.00;102873.16;2569520;30;139017;-36
2022/01/26 11:09:33;;;;;;;;;;;;;;;1.84;100.00;102878.66;2568974;30;137157;-38
2022/01/26 11:12:01;;;;;;;;;;;;;;;1.84;100.00;102871.44;2566217;30;137517;-38
2022/01/26 11:14:39;;;;;;;;;;;;;;;1.84;100.00;102871.44;2568604;30;136613;-38
2022/01/26 11:17:08;;;;;;;;;;;;;;;1.82;100.00;102875.22;2568130;30;136801;-36
2022/01/26 11:19:44;;;;;;;;;;;;;;;1.77;100.00;102878.19;2567804;30;136731;-36
2022/01/26 11:22:14;;;;;;;;;;;;;;;1.74;100.00;102875.72;2566994;30;138363;-36
2022/01/26 11:25:10;;;;;;;;;;;;;;;1.79;100.00;102887.03;2568390;30;137463;-36
2022/01/26 11:27:39;;;;;;;;;;;;;;;1.77;100.00;102878.19;2566045;30;138836;-36
2022/01/26 11:30:16;;;;;;;;;;;;;;;1.76;100.00;102881.00;2566130;30;137397;-36
2022/01/26 11:33:10;;;;;;;;;;;;;;;1.78;100.00;102896.06;2567543;30;139054;-36
2022/01/26 11:35:39;;;;;;;;;;;;;;;1.74;100.00;102899.09;2566974;30;137310;-36
2022/01/26 11:47:19;;;;;;;;;;;;;;;1.96;100.00;102874.25;2569181;30;136937;-36
2022/01/26 11:49:50;;;;;;;;;;;;;;;1.93;100.00;102872.63;2569779;30;138523;-36
2022/01/26 11:52:21;;;;;;;;;;;;;;;1.92;100.00;102862.00;2566858;30;138083;-36
2022/01/26 11:54:54;;;;;;;;;;;;;;;1.90;100.00;102872.00;2568147;30;138092;-36
2022/01/26 11:57:38;;;;;;;;;;;;;;;1.92;100.00;102857.44;2566745;30;137478;-36
2022/01/26 12:00:10;;;;;;;;;;;;;;;1.90;100.00;102856.69;2566746;30;138379;-35
2022/01/26 12:05:17;;;;;;;;;;;;;;;1.92;100.00;102870.06;2568196;30;137299;-36
2022/01/26 12:07:58;;;;;;;;;;;;;;;1.90;100.00;102861.22;2567867;30;137236;-36
2022/01/26 12:10:28;;;;;;;;;;;;;;;1.90;100.00;102862.06;2567315;30;138248;-35
2022/01/26 13:12:31;;;;;;;;;;;;;;;2.10;100.00;102828.38;1558466;30;3624781086;31
2022/01/26 13:15:05;;;;;;;;;;;;;;;2.12;100.00;102823.78;2568107;30;137219;-40
2022/01/26 13:17:39;;;;;;;;;;;;;;;2.11;100.00;102811.25;2568122;30;137137;-40
2022/01/26 13:20:32;;;;;;;;;;;;;;;2.17;100.00;102799.19;2569408;30;137940;-41
2022/01/26 13:23:12;;;;;;;;;;;;;;;2.18;100.00;102803.59;2567779;30;136894;-40
2022/01/26 13:26:14;;;;;;;;;;;;;;;2.21;100.00;102799.84;2569060;30;138991;-40
2022/01/26 13:37:25;;;;;;;;;;;;;;;2.19;100.00;102791.84;2568904;30;138298;-40
2022/01/26 13:50:35;;;;;;;;;;;;;;;2.18;100.00;102747.03;2568508;30;137227;-40
2022/01/26 13:53:11;;;;;;;;;;;;;;;2.17;100.00;102760.63;2567322;30;137545;-40
2022/01/26 13:56:02;;;;;;;;;;;;;;;2.17;100.00;102771.41;2568702;30;137052;-40
2022/01/26 14:01:16;;;;;;;;;;;;;;;2.13;100.00;102777.03;2568457;30;136698;-40
2022/01/26 14:03:48;;;;;;;;;;;;;;;2.17;100.00;102771.41;2569574;30;137177;-40
2022/01/26 14:06:15;;;;;;;;;;;;;;;2.14;100.00;102761.69;2568775;30;138140;-40
2022/01/26 14:08:43;;;;;;;;;;;;;;;2.13;100.00;102768.94;2568786;30;139091;-40
2022/01/26 14:11:11;;;;;;;;;;;;;;;2.10;100.00;102765.59;2567696;30;137954;-40
2022/01/26 14:13:39;;;;;;;;;;;;;;;2.07;100.00;102771.19;2568149;30;138603;-40
2022/01/26 14:16:09;;;;;;;;;;;;;;;2.06;100.00;102761.41;2567001;30;137203;-40
2022/01/26 14:18:45;;;;;;;;;;;;;;;2.03;100.00;102743.63;2568420;30;138276;-40
2022/01/26 14:21:33;;;;;;;;;;;;;;;2.00;100.00;102749.22;2567783;30;137137;-40
2022/01/26 14:24:24;;;;;;;;;;;;;;;1.98;100.00;102745.78;2568611;30;138442;-40
2022/01/26 14:26:56;;;;;;;;;;;;;;;1.99;100.00;102753.75;2568592;30;138050;-40
2022/01/26 14:51:00;;;;;;;;;;;;;;;1.97;100.00;102750.28;2568219;30;137287;-40
2022/01/26 15:34:44;;;;;;;;;;;;;;;2.03;100.00;102750.84;2568705;30;139133;-40
2022/01/26 15:40:43;;;;;;;;;;;;;;;1.97;100.00;102747.59;2568268;30;139053;-40
2022/01/26 16:04:24;;;;;;;;;;;;;;;2.03;100.00;102745.47;2568935;30;137203;-40
2022/01/26 16:07:03;;;;;;;;;;;;;;;1.99;100.00;102748.38;2567664;30;138616;-40
2022/01/26 18:51:32;;;;;;;;;;;;;;;1.59;100.00;102681.19;2568925;30;137324;-40
2022/01/26 18:54:00;;;;;;;;;;;;;;;1.55;100.00;102685.06;2568999;30;137335;-40
2022/01/26 18:56:28;;;;;;;;;;;;;;;1.55;100.00;102677.84;2568672;30;138140;-40
2022/01/26 18:58:56;;;;;;;;;;;;;;;1.52;100.00;102678.06;2565150;38;137364;-40
2022/01/26 19:01:24;;;;;;;;;;;;;;;1.53;100.00;102679.78;2566439;30;139234;-40
2022/01/26 19:04:01;;;;;;;;;;;;;;;1.56;100.00;102671.50;2568710;30;137188;-40
2022/01/26 19:06:29;;;;;;;;;;;;;;;1.55;100.00;102677.00;2569109;30;138543;-40
2022/01/26 19:08:56;;;;;;;;;;;;;;;1.53;100.00;102674.41;2568827;30;138034;-40
2022/01/26 19:11:25;;;;;;;;;;;;;;;1.53;100.00;102669.00;2565033;30;138174;-40
2022/01/26 19:13:53;;;;;;;;;;;;;;;1.50;100.00;102671.09;2570224;30;137652;-38
2022/01/26 19:16:40;;;;;;;;;;;;;;;1.55;100.00;102669.75;2568873;30;137259;-36
2022/01/26 19:26:44;;;;;;;;;;;;;;;1.56;100.00;102673.34;2568312;30;139009;-36
2022/01/26 19:29:28;;;;;;;;;;;;;;;1.52;100.00;102675.38;2569227;30;136965;-38
2022/01/26 19:32:31;;;;;;;;;;;;;;;1.54;100.00;102678.81;2569383;30;138259;-36
2022/01/26 19:46:03;;;;;;;;;;;;;;;1.61;100.00;102667.63;2568599;30;137067;-36
2022/01/26 19:51:18;;;;;;;;;;;;;;;1.57;100.00;102664.28;2568623;30;136860;-36
2022/01/26 19:53:46;;;;;;;;;;;;;;;1.54;100.00;102668.03;2568715;30;137868;-36
2022/01/26 19:56:14;;;;;;;;;;;;;;;1.52;100.00;102661.91;2569267;30;137373;-36
2022/01/26 19:58:42;;;;;;;;;;;;;;;1.52;100.00;102659.22;2568051;30;138635;-36
2022/01/26 20:01:10;;;;;;;;;;;;;;;1.53;100.00;102660.94;2568040;30;137390;-36
2022/01/26 20:03:38;;;;;;;;;;;;;;;1.54;100.00;102656.44;2568847;30;137327;-36
2022/01/26 20:06:08;;;;;;;;;;;;;;;1.64;100.00;102662.03;2569269;30;137228;-36
2022/01/26 20:11:10;;;;;;;;;;;;;;;1.60;100.00;102660.53;2568630;30;137391;-36
2022/01/26 20:13:42;;;;;;;;;;;;;;;1.61;100.00;102659.56;2568900;30;138414;-38
2022/01/26 20:16:11;;;;;;;;;;;;;;;1.62;100.00;102647.84;2568792;30;136889;-37
2022/01/26 20:18:39;;;;;;;;;;;;;;;1.64;100.00;102646.75;2567967;30;138341;-38
2022/01/26 20:21:09;;;;;;;;;;;;;;;1.60;100.00;102650.63;2567856;30;137812;-35
2022/01/26 20:23:38;;;;;;;;;;;;;;;1.58;100.00;102642.66;2568689;30;137222;-35
2022/01/26 20:26:07;;;;;;;;;;;;;;;1.57;100.00;102646.31;2570423;30;136946;-36
2022/01/26 20:28:38;;;;;;;;;;;;;;;1.58;100.00;102647.19;2568501;30;138256;-36
2022/01/26 20:31:16;;;;;;;;;;;;;;;1.56;100.00;102641.91;2569159;30;137110;-38
2022/01/26 20:33:44;;;;;;;;;;;;;;;1.58;100.00;102637.25;2568258;30;138996;-38
2022/01/26 20:36:13;;;;;;;;;;;;;;;1.56;100.00;102647.28;2568203;30;137094;-38
2022/01/26 20:38:41;;;;;;;;;;;;;;;1.59;100.00;102632.75;2567836;30;138467;-38
2022/01/26 20:41:09;;;;;;;;;;;;;;;1.58;100.00;102642.66;2568033;30;136891;-38
2022/01/26 20:43:37;;;;;;;;;;;;;;;1.55;100.00;102631.25;2566871;30;138332;-37
2022/01/26 20:46:05;;;;;;;;;;;;;;;1.58;100.00;102626.50;2568009;30;137232;-38
2022/01/26 20:48:33;;;;;;;;;;;;;;;1.59;100.00;102616.63;2567991;30;138079;-38
2022/01/26 20:51:02;;;;;;;;;;;;;;;1.62;100.00;102613.69;2565500;30;136946;-38
2022/01/26 20:53:30;;;;;;;;;;;;;;;1.62;100.00;102616.38;2567336;30;138508;-38
2022/01/26 20:55:58;;;;;;;;;;;;;;;1.58;100.00;102615.72;2566038;30;138100;-38